createdAt,value
2023-03-05T00:02:27.014Z,74.50
2023-03-05T00:04:56.722Z,74.80
2023-03-05T00:07:26.304Z,74.70
2023-03-05T00:09:56.095Z,74.70
2023-03-05T00:12:25.696Z,74.70
2023-03-05T00:14:55.502Z,74.80
2023-03-05T00:17:25.312Z,74.90
2023-03-05T00:19:54.994Z,74.90
2023-03-05T00:22:24.661Z,75.00
2023-03-05T00:24:54.444Z,75.00
2023-03-05T00:27:24.060Z,74.80
2023-03-05T00:29:54.355Z,74.90
2023-03-05T00:32:24.119Z,75.00
2023-03-05T00:34:53.788Z,75.10
2023-03-05T00:37:23.396Z,75.10
2023-03-05T00:39:53.368Z,75.00
2023-03-05T00:42:22.912Z,75.10
2023-03-05T00:44:52.562Z,74.80
2023-03-05T00:47:22.274Z,74.90
2023-03-05T00:49:51.827Z,74.70
2023-03-05T00:52:21.448Z,74.70
2023-03-05T00:54:51.188Z,74.70
2023-03-05T00:57:20.855Z,74.90
2023-03-05T00:59:50.517Z,74.70
2023-03-05T01:02:20.350Z,74.60
2023-03-05T01:04:50.209Z,75.30
2023-03-05T01:07:19.857Z,74.50
2023-03-05T01:09:49.528Z,74.50
2023-03-05T01:12:19.434Z,74.30
2023-03-05T01:14:49.118Z,74.30
2023-03-05T01:17:18.936Z,74.20
2023-03-05T01:19:48.680Z,74.00
2023-03-05T01:22:18.294Z,73.90
2023-03-05T01:24:48.049Z,73.80
2023-03-05T01:27:17.716Z,73.80
2023-03-05T01:29:47.501Z,73.60
2023-03-05T01:32:20.204Z,73.40
2023-03-05T01:34:49.914Z,73.10
2023-03-05T01:37:19.728Z,73.00
2023-03-05T01:39:49.402Z,72.80
2023-03-05T01:42:21.109Z,72.50
2023-03-05T01:45:14.917Z,72.30
2023-03-05T01:47:45.221Z,71.90
2023-03-05T01:50:20.678Z,71.60
2023-03-05T01:52:56.442Z,71.30
2023-03-05T01:55:28.257Z,71.00
2023-03-05T01:58:02.944Z,70.30
2023-03-05T02:00:38.537Z,69.60
2023-03-05T02:03:12.525Z,68.80
2023-03-05T02:05:44.961Z,68.10
2023-03-05T02:08:17.494Z,68.00
2023-03-05T02:10:50.028Z,68.00
2023-03-05T02:13:26.662Z,67.70
2023-03-05T02:15:59.863Z,67.70
2023-03-05T02:18:30.232Z,67.50
2023-03-05T02:21:04.387Z,67.40
2023-03-05T02:23:38.146Z,67.20
2023-03-05T02:26:11.709Z,66.90
2023-03-05T02:28:54.495Z,66.60
2023-03-05T02:31:26.967Z,65.80
2023-03-05T02:34:00.600Z,65.40
2023-03-05T02:36:30.398Z,65.30
2023-03-05T02:39:00.873Z,65.10
2023-03-05T02:41:30.715Z,65.00
2023-03-05T02:44:00.783Z,64.90
2023-03-05T02:46:30.478Z,64.60
2023-03-05T02:49:00.124Z,64.00
2023-03-05T02:51:29.782Z,63.90
2023-03-05T02:53:59.517Z,63.90
2023-03-05T02:56:29.305Z,63.60
2023-03-05T02:58:58.971Z,63.30
2023-03-05T03:01:30.116Z,63.10
2023-03-05T03:04:00.069Z,63.20
2023-03-05T03:06:29.709Z,63.00
2023-03-05T03:09:00.189Z,62.80
2023-03-05T03:11:29.841Z,62.30
2023-03-05T03:13:59.502Z,62.00
2023-03-05T03:16:29.212Z,61.50
2023-03-05T03:18:58.809Z,60.90
2023-03-05T03:21:29.037Z,60.90
2023-03-05T03:23:58.742Z,60.50
2023-03-05T03:26:28.474Z,59.80
2023-03-05T03:28:58.321Z,59.20
2023-03-05T03:31:28.127Z,59.30
2023-03-05T03:33:57.958Z,59.30
2023-03-05T03:36:28.233Z,59.40
2023-03-05T03:38:57.977Z,59.20
2023-03-05T03:41:27.576Z,58.80
2023-03-05T03:43:57.180Z,58.40
2023-03-05T03:46:27.199Z,58.50
2023-03-05T03:48:56.830Z,58.30
2023-03-05T03:51:26.438Z,58.40
2023-03-05T03:53:56.574Z,58.10
2023-03-05T03:56:26.168Z,58.10
2023-03-05T03:58:56.208Z,58.10
2023-03-05T04:01:25.962Z,57.80
2023-03-05T04:03:55.647Z,57.80
2023-03-05T04:06:25.603Z,57.60
2023-03-05T04:08:55.441Z,56.80
2023-03-05T04:11:25.242Z,56.50
2023-03-05T04:13:55.065Z,56.50
2023-03-05T04:16:25.325Z,56.50
2023-03-05T04:18:55.198Z,56.60
2023-03-05T04:21:24.948Z,56.60
2023-03-05T04:23:54.705Z,56.60
2023-03-05T04:26:24.440Z,56.50
2023-03-05T04:28:54.247Z,56.50
2023-03-05T04:31:24.067Z,56.40
2023-03-05T04:33:53.814Z,56.30
2023-03-05T04:36:23.653Z,56.10
2023-03-05T04:38:54.189Z,55.80
2023-03-05T04:41:24.019Z,55.50
2023-03-05T04:43:53.641Z,55.60
2023-03-05T04:46:23.519Z,55.60
2023-03-05T04:48:53.470Z,55.20
2023-03-05T04:51:23.277Z,55.20
2023-03-05T04:53:52.941Z,54.40
2023-03-05T04:56:22.661Z,54.50
2023-03-05T04:58:52.339Z,54.60
2023-03-05T05:01:22.188Z,54.60
2023-03-05T05:03:51.867Z,54.60
2023-03-05T05:06:21.550Z,54.50
2023-03-05T05:08:51.249Z,54.50
2023-03-05T05:11:20.984Z,54.40
2023-03-05T05:13:50.675Z,54.00
2023-03-05T05:16:20.476Z,53.90
2023-03-05T05:18:50.268Z,53.80
2023-03-05T05:21:20.370Z,53.80
2023-03-05T05:23:50.162Z,53.20
2023-03-05T05:26:19.867Z,53.40
2023-03-05T05:28:50.710Z,53.30
2023-03-05T05:31:20.853Z,52.90
2023-03-05T05:33:50.567Z,52.10
2023-03-05T05:36:21.294Z,52.20
2023-03-05T05:38:51.276Z,52.40
2023-03-05T05:41:21.963Z,52.60
2023-03-05T05:43:51.868Z,52.50
2023-03-05T05:46:23.049Z,52.60
2023-03-05T05:48:53.564Z,52.60
2023-03-05T05:51:25.832Z,52.50
2023-03-05T05:53:55.967Z,51.50
2023-03-05T05:56:25.553Z,51.30
2023-03-05T05:58:55.139Z,51.50
2023-03-05T06:01:28.197Z,51.50
2023-03-05T06:03:58.989Z,51.60
2023-03-05T06:06:29.760Z,51.60
2023-03-05T06:08:59.419Z,51.60
2023-03-05T06:11:29.464Z,51.40
2023-03-05T06:13:59.339Z,51.10
2023-03-05T06:16:29.060Z,51.30
2023-03-05T06:18:58.933Z,50.00
2023-03-05T06:21:28.603Z,50.60
2023-03-05T06:24:00.324Z,50.80
2023-03-05T06:26:30.067Z,50.70
2023-03-05T06:29:00.770Z,50.60
2023-03-05T06:31:32.533Z,50.60
2023-03-05T06:34:03.408Z,50.30
2023-03-05T06:36:33.617Z,50.30
2023-03-05T06:39:03.345Z,50.20
2023-03-05T06:41:34.888Z,50.00
2023-03-05T06:44:05.886Z,50.00
2023-03-05T06:46:39.166Z,49.90
2023-03-05T06:49:11.112Z,49.70
2023-03-05T06:51:42.809Z,49.80
2023-03-05T06:54:16.028Z,49.60
2023-03-05T06:56:48.385Z,49.20
2023-03-05T06:59:19.143Z,49.50
2023-03-05T07:01:48.901Z,49.60
2023-03-05T07:04:19.226Z,49.60
2023-03-05T07:06:49.022Z,49.60
2023-03-05T07:09:19.057Z,49.50
2023-03-05T07:11:48.750Z,49.10
2023-03-05T07:14:18.551Z,49.20
2023-03-05T07:16:48.246Z,49.30
2023-03-05T07:19:19.033Z,49.10
2023-03-05T07:21:49.240Z,49.00
2023-03-05T07:24:18.934Z,49.10
2023-03-05T07:26:49.054Z,49.20
2023-03-05T07:29:18.736Z,49.20
2023-03-05T07:31:48.701Z,49.00
2023-03-05T07:34:18.445Z,49.00
2023-03-05T07:36:51.887Z,48.80
2023-03-05T07:39:22.150Z,48.50
2023-03-05T07:41:53.478Z,48.80
2023-03-05T07:44:23.189Z,48.70
2023-03-05T07:46:52.860Z,48.60
2023-03-05T07:49:22.683Z,48.70
2023-03-05T07:51:52.630Z,48.60
2023-03-05T07:54:22.326Z,48.70
2023-03-05T07:56:52.157Z,48.50
2023-03-05T07:59:21.937Z,48.30
2023-03-05T08:01:51.704Z,48.40
2023-03-05T08:04:21.423Z,48.40
2023-03-05T08:06:51.709Z,47.80
2023-03-05T08:09:21.711Z,48.10
2023-03-05T08:11:51.353Z,47.80
2023-03-05T08:14:21.007Z,47.80
2023-03-05T08:16:54.309Z,48.40
2023-03-05T08:19:24.155Z,47.90
2023-03-05T08:21:55.549Z,48.00
2023-03-05T08:24:31.167Z,48.00
2023-03-05T08:27:01.338Z,47.70
2023-03-05T08:29:32.316Z,48.00
2023-03-05T08:32:02.026Z,48.40
2023-03-05T08:34:31.784Z,47.90
2023-03-05T08:37:01.664Z,47.80
2023-03-05T08:39:31.921Z,47.90
2023-03-05T08:42:02.152Z,47.90
2023-03-05T08:44:32.056Z,47.80
2023-03-05T08:47:01.780Z,47.70
2023-03-05T08:49:31.435Z,47.80
2023-03-05T08:52:01.378Z,47.40
2023-03-05T08:54:31.103Z,47.60
2023-03-05T08:57:00.807Z,47.50
2023-03-05T08:59:30.563Z,47.50
2023-03-05T09:02:04.334Z,47.30
2023-03-05T09:04:34.024Z,47.40
2023-03-05T09:07:03.804Z,47.60
2023-03-05T09:09:34.661Z,47.50
2023-03-05T09:12:05.135Z,47.50
2023-03-05T09:14:34.858Z,47.50
2023-03-05T09:17:05.060Z,47.50
2023-03-05T09:19:34.781Z,47.50
2023-03-05T09:22:04.421Z,47.70
2023-03-05T09:24:34.244Z,47.60
2023-03-05T09:27:03.977Z,47.50
2023-03-05T09:29:33.972Z,47.30
2023-03-05T09:32:03.863Z,47.50
2023-03-05T09:34:33.810Z,47.50
2023-03-05T09:37:03.755Z,47.60
2023-03-05T09:39:33.578Z,47.70
2023-03-05T09:42:31.718Z,47.70
2023-03-05T09:45:26.289Z,47.70
2023-03-05T09:48:18.609Z,47.70
2023-03-05T09:51:03.030Z,47.80
2023-03-05T09:54:03.118Z,47.90
2023-03-05T09:56:41.770Z,47.90
2023-03-05T09:59:37.630Z,48.10
2023-03-05T10:02:32.506Z,48.10
2023-03-05T10:05:17.877Z,48.20
2023-03-05T10:07:59.775Z,48.30
2023-03-05T10:10:42.428Z,48.40
2023-03-05T10:13:23.081Z,48.40
2023-03-05T10:16:31.806Z,48.50
2023-03-05T10:19:40.741Z,48.50
2023-03-05T10:22:31.449Z,48.50
2023-03-05T10:25:33.487Z,48.60
2023-03-05T10:28:19.389Z,48.80
2023-03-05T10:31:28.571Z,48.70
2023-03-05T10:34:27.118Z,48.80
2023-03-05T10:37:17.739Z,48.90
2023-03-05T10:40:18.175Z,49.10
2023-03-05T10:43:27.779Z,49.10
2023-03-05T10:46:06.962Z,49.10
2023-03-05T10:49:00.812Z,49.20
2023-03-05T10:51:39.981Z,49.30
2023-03-05T10:54:33.780Z,49.50
2023-03-05T10:57:24.872Z,49.50
2023-03-05T11:00:21.172Z,49.60
2023-03-05T11:03:11.561Z,49.80
2023-03-05T11:05:49.361Z,50.50
2023-03-05T11:08:36.538Z,50.00
2023-03-05T11:11:17.123Z,50.10
2023-03-05T11:14:05.431Z,50.10
2023-03-05T11:16:50.184Z,50.30
2023-03-05T11:19:23.318Z,50.40
2023-03-05T11:22:18.143Z,50.50
2023-03-05T11:25:16.981Z,50.60
2023-03-05T11:27:57.324Z,50.70
2023-03-05T11:30:38.158Z,50.80
2023-03-05T11:33:22.199Z,50.90
2023-03-05T11:35:53.732Z,51.10
2023-03-05T11:38:27.826Z,51.20
2023-03-05T11:40:59.401Z,51.30
2023-03-05T11:43:32.902Z,51.40
2023-03-05T11:46:06.594Z,51.50
2023-03-05T11:48:41.806Z,51.60
2023-03-05T11:51:42.911Z,51.70
2023-03-05T11:54:20.041Z,51.80
2023-03-05T11:56:51.029Z,51.90
2023-03-05T11:59:25.511Z,51.90
2023-03-05T12:01:58.179Z,52.10
2023-03-05T12:04:28.761Z,52.10
2023-03-05T12:07:04.978Z,52.20
2023-03-05T12:09:55.284Z,52.30
2023-03-05T12:12:41.263Z,52.40
2023-03-05T12:15:50.093Z,52.50
2023-03-05T12:18:50.401Z,52.60
2023-03-05T12:21:41.603Z,52.70
2023-03-05T12:24:38.183Z,52.80
2023-03-05T12:27:12.346Z,53.00
2023-03-05T12:29:54.635Z,53.00
2023-03-05T12:32:55.664Z,53.10
2023-03-05T12:35:38.051Z,53.30
2023-03-05T12:38:36.157Z,53.30
2023-03-05T12:41:41.678Z,53.50
2023-03-05T12:44:20.720Z,53.60
2023-03-05T12:47:21.066Z,53.70
2023-03-05T12:49:51.055Z,54.00
2023-03-05T12:52:28.254Z,54.10
2023-03-05T12:55:15.828Z,54.20
2023-03-05T12:57:47.551Z,54.30
2023-03-05T13:00:42.919Z,54.30
2023-03-05T13:03:20.212Z,54.50
2023-03-05T13:05:57.594Z,54.50
2023-03-05T13:08:37.816Z,54.60
2023-03-05T13:11:18.362Z,54.70
2023-03-05T13:13:50.133Z,54.80
2023-03-05T13:16:30.737Z,55.00
2023-03-05T13:19:04.555Z,54.90
2023-03-05T13:21:36.996Z,55.10
2023-03-05T13:24:17.209Z,55.60
2023-03-05T13:26:47.095Z,55.10
2023-03-05T13:29:22.810Z,55.30
2023-03-05T13:31:58.714Z,55.50
2023-03-05T13:34:45.856Z,55.70
2023-03-05T13:37:23.464Z,56.10
2023-03-05T13:40:04.340Z,56.20
2023-03-05T13:42:36.590Z,56.40
2023-03-05T13:45:28.559Z,56.50
2023-03-05T13:48:02.168Z,56.70
2023-03-05T13:50:34.884Z,56.80
2023-03-05T13:53:30.147Z,57.10
2023-03-05T13:56:09.247Z,57.30
2023-03-05T13:58:59.272Z,57.30
2023-03-05T14:01:40.671Z,57.30
2023-03-05T14:04:26.161Z,57.20
2023-03-05T14:07:28.670Z,57.30
2023-03-05T14:09:58.401Z,57.60
2023-03-05T14:12:40.381Z,57.80
2023-03-05T14:15:33.951Z,57.80
2023-03-05T14:18:23.306Z,58.10
2023-03-05T14:21:13.440Z,58.00
2023-03-05T14:23:48.712Z,58.00
2023-03-05T14:26:40.983Z,58.00
2023-03-05T14:29:19.970Z,58.30
2023-03-05T14:32:12.313Z,58.30
2023-03-05T14:34:44.112Z,58.40
2023-03-05T14:37:43.760Z,58.60
2023-03-05T14:40:29.180Z,58.60
2023-03-05T14:43:05.641Z,58.70
2023-03-05T14:45:44.699Z,58.80
2023-03-05T14:48:17.144Z,58.80
2023-03-05T14:50:56.189Z,59.10
2023-03-05T14:53:40.571Z,59.30
2023-03-05T14:56:24.300Z,59.30
2023-03-05T14:58:54.271Z,59.40
2023-03-05T15:01:26.138Z,59.70
2023-03-05T15:03:55.906Z,59.70
2023-03-05T15:06:44.987Z,59.80
2023-03-05T15:09:19.289Z,59.80
2023-03-05T15:11:50.031Z,59.90
2023-03-05T15:14:19.772Z,60.00
2023-03-05T15:16:50.506Z,60.10
2023-03-05T15:19:20.347Z,60.20
2023-03-05T15:21:50.240Z,60.40
2023-03-05T15:24:19.985Z,60.40
2023-03-05T15:26:50.299Z,60.50
2023-03-05T15:29:20.009Z,60.80
2023-03-05T15:31:50.033Z,61.00
2023-03-05T15:34:19.633Z,61.00
2023-03-05T15:36:49.259Z,61.00
2023-03-05T15:39:18.935Z,61.30
2023-03-05T15:41:48.581Z,61.40
2023-03-05T15:44:18.179Z,61.50
2023-03-05T15:46:48.675Z,61.70
2023-03-05T15:49:18.524Z,61.80
2023-03-05T15:51:48.099Z,61.80
2023-03-05T15:54:17.831Z,61.80
2023-03-05T15:56:47.566Z,62.20
2023-03-05T15:59:17.311Z,62.10
2023-03-05T16:01:51.318Z,62.20
2023-03-05T16:04:21.373Z,62.40
2023-03-05T16:06:52.606Z,62.30
2023-03-05T16:09:24.301Z,62.20
2023-03-05T16:11:54.622Z,62.30
2023-03-05T16:14:28.150Z,62.40
2023-03-05T16:16:59.012Z,62.80
2023-03-05T16:19:29.325Z,62.90
2023-03-05T16:21:59.024Z,63.20
2023-03-05T16:24:29.046Z,63.20
2023-03-05T16:26:58.765Z,63.50
2023-03-05T16:29:30.913Z,63.60
2023-03-05T16:32:01.302Z,63.40
2023-03-05T16:34:31.019Z,63.70
2023-03-05T16:37:02.646Z,64.00
2023-03-05T16:39:32.549Z,64.00
2023-03-05T16:42:02.235Z,64.00
2023-03-05T16:44:31.831Z,64.00
2023-03-05T16:47:02.048Z,64.10
2023-03-05T16:49:31.747Z,64.30
2023-03-05T16:52:06.202Z,64.40
2023-03-05T16:54:46.546Z,64.60
2023-03-05T16:57:16.319Z,64.40
2023-03-05T16:59:46.475Z,64.60
2023-03-05T17:02:17.104Z,64.50
2023-03-05T17:04:47.712Z,64.70
2023-03-05T17:07:17.338Z,64.80
2023-03-05T17:09:49.482Z,64.70
2023-03-05T17:12:19.148Z,64.80
2023-03-05T17:14:48.781Z,65.20
2023-03-05T17:17:18.567Z,65.00
2023-03-05T17:19:48.258Z,65.40
2023-03-05T17:22:18.358Z,65.20
2023-03-05T17:24:49.261Z,65.50
2023-03-05T17:27:30.623Z,65.40
2023-03-05T17:30:00.398Z,65.50
2023-03-05T17:32:30.236Z,65.30
2023-03-05T17:34:59.991Z,65.30
2023-03-05T17:37:29.914Z,65.50
2023-03-05T17:39:59.732Z,66.00
2023-03-05T17:42:29.398Z,66.10
2023-03-05T17:45:00.940Z,66.20
2023-03-05T17:47:34.300Z,66.30
2023-03-05T17:50:04.712Z,66.30
2023-03-05T17:52:34.369Z,65.90
2023-03-05T17:55:04.095Z,66.40
2023-03-05T17:57:33.878Z,66.70
2023-03-05T18:00:03.516Z,66.60
2023-03-05T18:02:35.131Z,66.90
2023-03-05T18:05:04.937Z,67.10
2023-03-05T18:07:35.156Z,67.60
2023-03-05T18:10:05.128Z,67.50
2023-03-05T18:12:35.452Z,67.90
2023-03-05T18:15:06.573Z,68.00
2023-03-05T18:17:36.430Z,68.10
2023-03-05T18:20:07.779Z,68.10
2023-03-05T18:22:37.700Z,67.80
2023-03-05T18:25:07.657Z,68.30
2023-03-05T18:27:37.349Z,68.50
2023-03-05T18:30:07.566Z,68.60
2023-03-05T18:32:38.236Z,68.80
2023-03-05T18:35:08.870Z,68.80
2023-03-05T18:37:41.538Z,68.70
2023-03-05T18:40:18.058Z,69.10
2023-03-05T18:42:49.100Z,68.90
2023-03-05T18:45:21.213Z,69.10
2023-03-05T18:47:55.842Z,69.20
2023-03-05T18:50:27.872Z,69.30
2023-03-05T18:52:57.588Z,68.80
2023-03-05T18:55:30.045Z,69.20
2023-03-05T18:58:00.140Z,69.50
2023-03-05T19:00:32.378Z,69.80
2023-03-05T19:03:02.559Z,70.40
2023-03-05T19:05:33.181Z,69.50
2023-03-05T19:08:03.669Z,69.80
2023-03-05T19:10:35.058Z,69.90
2023-03-05T19:13:42.488Z,70.00
2023-03-05T19:16:15.346Z,70.60
2023-03-05T19:19:34.424Z,70.80
2023-03-05T19:22:04.415Z,70.40
2023-03-05T19:24:35.064Z,70.90
2023-03-05T19:27:11.840Z,71.20
2023-03-05T19:29:43.430Z,70.80
2023-03-05T19:32:19.298Z,71.10
2023-03-05T19:34:49.360Z,71.00
2023-03-05T19:37:19.914Z,70.80
2023-03-05T19:39:49.578Z,71.20
2023-03-05T19:42:19.428Z,71.30
2023-03-05T19:44:49.239Z,71.90
2023-03-05T19:47:19.021Z,71.90
2023-03-05T19:49:49.392Z,72.20
2023-03-05T19:52:19.254Z,72.50
2023-03-05T19:54:49.001Z,72.30
2023-03-05T19:57:18.655Z,72.50
2023-03-05T19:59:48.520Z,72.30
2023-03-05T20:02:22.675Z,72.40
2023-03-05T20:04:53.188Z,72.40
2023-03-05T20:07:22.859Z,72.10
2023-03-05T20:09:54.801Z,72.20
2023-03-05T20:12:28.116Z,72.60
2023-03-05T20:14:57.770Z,72.10
2023-03-05T20:17:27.594Z,72.70
2023-03-05T20:20:00.562Z,72.50
2023-03-05T20:22:30.387Z,72.50
2023-03-05T20:25:00.491Z,72.80
2023-03-05T20:27:30.197Z,72.40
2023-03-05T20:30:00.365Z,72.70
2023-03-05T20:32:30.176Z,72.70
2023-03-05T20:34:59.749Z,72.70
2023-03-05T20:38:28.114Z,72.70
2023-03-05T20:41:09.669Z,72.90
2023-03-05T20:43:42.996Z,73.00
2023-03-05T20:46:25.696Z,72.90
2023-03-05T20:49:00.732Z,73.00
2023-03-05T20:51:37.939Z,73.10
2023-03-05T20:54:14.631Z,72.90
2023-03-05T20:56:44.667Z,73.10
2023-03-05T20:59:14.349Z,73.10
2023-03-05T21:01:44.180Z,73.30
2023-03-05T21:04:13.861Z,73.10
2023-03-05T21:06:43.729Z,73.20
2023-03-05T21:09:13.601Z,73.20
2023-03-05T21:11:43.239Z,73.50
2023-03-05T21:14:12.913Z,73.70
2023-03-05T21:16:42.711Z,74.50
2023-03-05T21:19:12.403Z,73.70
2023-03-05T21:21:46.403Z,73.70
2023-03-05T21:24:31.760Z,73.90
2023-03-05T21:27:01.449Z,73.90
2023-03-05T21:29:31.304Z,74.30
2023-03-05T21:32:00.911Z,74.40
2023-03-05T21:34:30.700Z,74.70
2023-03-05T21:37:00.490Z,74.30
2023-03-05T21:39:30.110Z,74.80
2023-03-05T21:41:59.904Z,74.80
2023-03-05T21:44:29.523Z,75.00
2023-03-05T21:46:59.331Z,75.80
2023-03-05T21:49:29.101Z,75.00
2023-03-05T21:52:20.128Z,74.80
2023-03-05T21:54:49.866Z,74.90
2023-03-05T21:57:19.556Z,75.50
2023-03-05T21:59:49.403Z,75.30
2023-03-05T22:02:21.668Z,75.20
2023-03-05T22:04:51.931Z,75.40
2023-03-05T22:07:22.485Z,75.30
2023-03-05T22:09:57.391Z,75.40
2023-03-05T22:13:20.222Z,75.30
2023-03-05T22:15:52.817Z,75.50
2023-03-05T22:18:28.026Z,75.50
2023-03-05T22:20:58.816Z,75.10
2023-03-05T22:23:31.608Z,75.30
2023-03-05T22:26:04.402Z,75.30
2023-03-05T22:28:34.921Z,75.30
2023-03-05T22:31:04.958Z,75.60
2023-03-05T22:33:35.112Z,75.60
2023-03-05T22:36:11.922Z,75.60
2023-03-05T22:38:41.685Z,75.70
2023-03-05T22:41:13.407Z,75.80
2023-03-05T22:43:43.879Z,75.80
2023-03-05T22:46:16.764Z,75.70
2023-03-05T22:48:47.205Z,75.80
2023-03-05T22:51:17.784Z,75.60
2023-03-05T22:53:48.891Z,75.80
2023-03-05T22:56:21.968Z,75.90
2023-03-05T22:58:51.642Z,75.90
2023-03-05T23:01:26.378Z,75.80
2023-03-05T23:04:19.875Z,76.00
2023-03-05T23:06:50.252Z,76.00
2023-03-05T23:09:20.114Z,76.00
2023-03-05T23:11:50.094Z,75.90
2023-03-05T23:14:19.717Z,76.00
2023-03-05T23:16:49.663Z,75.90
2023-03-05T23:19:19.386Z,76.10
2023-03-05T23:21:49.100Z,76.20
2023-03-05T23:24:18.754Z,76.10
2023-03-05T23:26:48.492Z,76.20
2023-03-05T23:29:24.929Z,76.30
2023-03-05T23:31:58.032Z,76.60
2023-03-05T23:34:28.322Z,76.60
2023-03-05T23:36:58.124Z,76.60
2023-03-05T23:39:27.841Z,76.60
2023-03-05T23:41:57.455Z,76.80
2023-03-05T23:44:27.049Z,76.80
2023-03-05T23:46:56.766Z,76.70
2023-03-05T23:49:26.411Z,76.80
2023-03-05T23:51:56.061Z,76.80
2023-03-05T23:54:26.494Z,76.90
2023-03-05T23:56:56.094Z,76.90
2023-03-05T23:59:25.700Z,77.80
